createdAt,value
2023-01-09T00:00:54.216Z,11.30
2023-01-09T00:03:21.322Z,11.80
2023-01-09T00:05:48.010Z,10.80
2023-01-09T00:08:14.642Z,10.80
2023-01-09T00:10:41.447Z,10.90
2023-01-09T00:13:11.296Z,10.80
2023-01-09T00:15:38.900Z,10.80
2023-01-09T00:18:05.890Z,10.80
2023-01-09T00:20:32.543Z,10.80
2023-01-09T00:23:01.555Z,10.70
2023-01-09T00:25:30.668Z,8.50
2023-01-09T00:27:57.496Z,11.00
2023-01-09T00:30:24.909Z,12.20
2023-01-09T00:32:51.674Z,12.60
2023-01-09T00:35:18.776Z,10.20
2023-01-09T00:37:45.848Z,10.70
2023-01-09T00:40:14.196Z,13.40
2023-01-09T00:42:41.069Z,13.10
2023-01-09T00:45:11.540Z,10.70
2023-01-09T00:47:43.030Z,10.80
2023-01-09T00:50:17.178Z,10.80
2023-01-09T00:52:44.243Z,10.80
2023-01-09T00:55:11.324Z,10.70
2023-01-09T00:57:38.028Z,10.70
2023-01-09T01:00:05.556Z,10.80
2023-01-09T01:02:32.402Z,10.80
2023-01-09T01:05:17.724Z,10.80
2023-01-09T01:07:44.990Z,10.70
2023-01-09T01:10:21.082Z,10.70
2023-01-09T01:12:49.099Z,10.70
2023-01-09T01:15:16.593Z,10.70
2023-01-09T01:17:43.907Z,10.80
2023-01-09T01:20:13.188Z,10.80
2023-01-09T01:22:42.355Z,10.70
2023-01-09T01:25:11.091Z,10.70
2023-01-09T01:27:37.977Z,10.70
2023-01-09T01:30:06.016Z,10.70
2023-01-09T01:32:32.701Z,10.70
2023-01-09T01:34:59.328Z,10.70
2023-01-09T01:37:27.729Z,10.70
2023-01-09T01:39:54.428Z,10.60
2023-01-09T01:42:21.372Z,10.60
2023-01-09T01:45:09.984Z,10.70
2023-01-09T01:48:11.798Z,10.70
2023-01-09T01:50:52.147Z,10.60
2023-01-09T01:53:28.517Z,10.60
2023-01-09T01:56:06.140Z,10.60
2023-01-09T01:58:40.583Z,10.60
2023-01-09T02:01:07.531Z,10.60
2023-01-09T02:03:34.551Z,11.80
2023-01-09T02:06:04.374Z,10.60
2023-01-09T02:08:31.677Z,10.70
2023-01-09T02:10:58.646Z,10.60
2023-01-09T02:13:26.228Z,10.60
2023-01-09T02:16:17.244Z,10.60
2023-01-09T02:18:52.186Z,10.60
2023-01-09T02:21:56.245Z,10.60
2023-01-09T02:24:38.395Z,10.60
2023-01-09T02:27:29.300Z,10.50
2023-01-09T02:30:33.920Z,10.60
2023-01-09T02:33:29.666Z,10.60
2023-01-09T02:36:10.888Z,10.60
2023-01-09T02:38:50.883Z,10.60
2023-01-09T02:41:31.256Z,10.50
2023-01-09T02:44:24.283Z,10.60
2023-01-09T02:47:16.941Z,10.60
2023-01-09T02:49:57.486Z,10.50
2023-01-09T02:52:47.683Z,10.50
2023-01-09T02:55:40.617Z,10.50
2023-01-09T02:58:11.438Z,10.60
2023-01-09T03:00:45.876Z,10.60
2023-01-09T03:03:20.860Z,10.60
2023-01-09T03:05:59.101Z,10.50
2023-01-09T03:08:32.211Z,10.50
2023-01-09T03:11:01.429Z,10.70
2023-01-09T03:13:32.739Z,10.60
2023-01-09T03:16:01.278Z,10.60
2023-01-09T03:18:29.949Z,10.60
2023-01-09T03:20:56.760Z,10.60
2023-01-09T03:23:23.428Z,10.50
2023-01-09T03:25:50.093Z,10.60
2023-01-09T03:28:29.713Z,10.50
2023-01-09T03:30:56.372Z,10.50
2023-01-09T03:33:23.019Z,10.50
2023-01-09T03:35:49.956Z,10.50
2023-01-09T03:38:16.606Z,10.50
2023-01-09T03:40:43.756Z,10.50
2023-01-09T03:43:10.587Z,10.50
2023-01-09T03:45:37.404Z,10.50
2023-01-09T03:48:04.483Z,10.50
2023-01-09T03:50:31.192Z,10.50
2023-01-09T03:52:57.851Z,10.50
2023-01-09T03:55:24.585Z,10.50
2023-01-09T03:57:52.722Z,10.50
2023-01-09T04:00:20.448Z,10.50
2023-01-09T04:02:47.623Z,10.40
2023-01-09T04:05:14.339Z,10.50
2023-01-09T04:07:41.020Z,10.50
2023-01-09T04:10:08.198Z,10.50
2023-01-09T04:12:34.898Z,10.50
2023-01-09T04:15:01.633Z,10.50
2023-01-09T04:17:28.315Z,11.60
2023-01-09T04:19:54.929Z,10.50
2023-01-09T04:22:21.591Z,10.40
2023-01-09T04:24:48.268Z,10.40
2023-01-09T04:27:14.877Z,10.40
2023-01-09T04:29:41.528Z,10.40
2023-01-09T04:32:08.292Z,10.40
2023-01-09T04:34:34.999Z,10.40
2023-01-09T04:37:01.642Z,10.40
2023-01-09T04:39:28.309Z,10.40
2023-01-09T04:41:55.029Z,10.40
2023-01-09T04:44:25.743Z,10.30
2023-01-09T04:46:53.224Z,10.40
2023-01-09T04:49:20.311Z,10.30
2023-01-09T04:51:47.057Z,10.40
2023-01-09T04:54:13.876Z,10.30
2023-01-09T04:56:40.663Z,10.30
2023-01-09T04:59:08.904Z,10.30
2023-01-09T05:01:36.084Z,10.30
2023-01-09T05:04:03.640Z,10.20
2023-01-09T05:06:30.663Z,10.20
2023-01-09T05:08:57.584Z,11.00
2023-01-09T05:11:25.447Z,10.20
2023-01-09T05:13:52.924Z,10.20
2023-01-09T05:16:19.950Z,10.20
2023-01-09T05:18:46.709Z,10.10
2023-01-09T05:21:14.156Z,10.10
2023-01-09T05:23:41.182Z,10.10
2023-01-09T05:26:07.814Z,10.10
2023-01-09T05:28:34.564Z,10.20
2023-01-09T05:31:01.235Z,10.10
2023-01-09T05:33:27.998Z,10.10
2023-01-09T05:35:54.700Z,10.10
2023-01-09T05:38:21.414Z,10.10
2023-01-09T05:40:48.162Z,10.00
2023-01-09T05:43:15.192Z,10.00
2023-01-09T05:45:41.912Z,10.00
2023-01-09T05:48:08.700Z,9.90
2023-01-09T05:50:35.483Z,9.90
2023-01-09T05:53:02.434Z,9.90
2023-01-09T05:55:29.364Z,9.90
2023-01-09T05:57:56.046Z,9.90
2023-01-09T06:00:22.941Z,9.90
2023-01-09T06:02:49.613Z,9.90
2023-01-09T06:05:16.330Z,9.90
2023-01-09T06:07:43.036Z,9.90
2023-01-09T06:10:12.235Z,9.90
2023-01-09T06:12:39.152Z,9.80
2023-01-09T06:15:08.736Z,9.70
2023-01-09T06:17:35.886Z,9.70
2023-01-09T06:20:02.822Z,9.70
2023-01-09T06:22:29.470Z,9.70
2023-01-09T06:24:56.381Z,9.70
2023-01-09T06:27:22.987Z,9.60
2023-01-09T06:29:49.717Z,9.60
2023-01-09T06:32:16.415Z,9.60
2023-01-09T06:34:43.072Z,9.60
2023-01-09T06:37:09.917Z,9.60
2023-01-09T06:39:36.772Z,9.60
2023-01-09T06:42:04.095Z,9.50
2023-01-09T06:44:30.779Z,9.50
2023-01-09T06:46:57.409Z,9.50
2023-01-09T06:49:24.847Z,9.50
2023-01-09T06:51:51.811Z,9.50
2023-01-09T06:54:18.973Z,9.50
2023-01-09T06:56:45.665Z,9.50
2023-01-09T06:59:12.935Z,9.40
2023-01-09T07:01:39.933Z,9.40
2023-01-09T07:04:08.158Z,9.40
2023-01-09T07:06:34.920Z,9.40
2023-01-09T07:09:01.674Z,9.40
2023-01-09T07:11:28.283Z,9.30
2023-01-09T07:13:54.910Z,9.30
2023-01-09T07:16:21.562Z,9.30
2023-01-09T07:18:48.229Z,9.30
2023-01-09T07:21:14.878Z,9.30
2023-01-09T07:23:41.516Z,9.20
2023-01-09T07:26:08.987Z,9.20
2023-01-09T07:28:35.642Z,9.20
2023-01-09T07:31:04.428Z,9.10
2023-01-09T07:33:31.113Z,9.20
2023-01-09T07:35:57.852Z,9.10
2023-01-09T07:38:24.519Z,9.10
2023-01-09T07:40:51.343Z,9.10
2023-01-09T07:43:18.221Z,9.00
2023-01-09T07:45:46.541Z,9.00
2023-01-09T07:48:13.838Z,9.00
2023-01-09T07:50:40.569Z,9.00
2023-01-09T07:53:07.266Z,9.00
2023-01-09T07:55:33.965Z,9.00
2023-01-09T07:58:00.660Z,9.00
2023-01-09T08:00:27.912Z,9.00
2023-01-09T08:02:54.903Z,8.90
2023-01-09T08:05:22.128Z,8.90
2023-01-09T08:07:50.792Z,8.90
2023-01-09T08:10:21.394Z,8.90
2023-01-09T08:12:49.099Z,9.00
2023-01-09T08:15:16.546Z,8.90
2023-01-09T08:17:44.752Z,8.90
2023-01-09T08:20:12.975Z,8.90
2023-01-09T08:22:41.444Z,8.90
2023-01-09T08:25:11.251Z,8.90
2023-01-09T08:27:38.910Z,8.90
2023-01-09T08:30:06.350Z,8.90
2023-01-09T08:32:33.097Z,8.90
2023-01-09T08:34:59.972Z,8.80
2023-01-09T08:37:26.721Z,8.90
2023-01-09T08:39:53.530Z,8.80
2023-01-09T08:42:39.349Z,8.80
2023-01-09T08:45:25.294Z,8.80
2023-01-09T08:47:52.172Z,8.80
2023-01-09T08:50:19.051Z,8.80
2023-01-09T08:52:45.770Z,8.80
2023-01-09T08:55:12.543Z,8.90
2023-01-09T08:57:50.711Z,8.80
2023-01-09T09:00:18.966Z,8.80
2023-01-09T09:02:46.014Z,8.90
2023-01-09T09:05:12.785Z,8.80
2023-01-09T09:07:39.569Z,8.80
2023-01-09T09:10:06.618Z,8.90
2023-01-09T09:12:33.319Z,8.80
2023-01-09T09:15:38.390Z,8.80
2023-01-09T09:18:07.123Z,8.80
2023-01-09T09:20:38.540Z,8.80
2023-01-09T09:23:05.867Z,8.80
2023-01-09T09:25:32.617Z,8.90
2023-01-09T09:28:01.228Z,8.80
2023-01-09T09:30:28.529Z,8.80
2023-01-09T09:32:55.425Z,8.90
2023-01-09T09:35:22.599Z,8.80
2023-01-09T09:38:03.224Z,8.90
2023-01-09T09:41:01.927Z,8.90
2023-01-09T09:44:00.002Z,8.90
2023-01-09T09:47:01.956Z,8.90
2023-01-09T09:49:42.772Z,8.90
2023-01-09T09:52:36.909Z,9.00
2023-01-09T09:55:34.728Z,8.90
2023-01-09T09:58:07.841Z,9.00
2023-01-09T10:00:34.654Z,9.00
2023-01-09T10:03:33.065Z,9.00
2023-01-09T10:06:01.088Z,9.00
2023-01-09T10:09:06.016Z,9.10
2023-01-09T10:11:43.070Z,9.00
2023-01-09T10:14:23.343Z,9.10
2023-01-09T10:17:13.096Z,9.10
2023-01-09T10:20:04.165Z,9.10
2023-01-09T10:22:41.515Z,9.10
2023-01-09T10:25:17.223Z,9.10
2023-01-09T10:28:00.922Z,9.10
2023-01-09T10:30:39.905Z,9.20
2023-01-09T10:33:29.545Z,9.20
2023-01-09T10:36:14.842Z,9.20
2023-01-09T10:38:45.269Z,9.20
2023-01-09T10:41:32.124Z,9.30
2023-01-09T10:44:06.787Z,9.30
2023-01-09T10:46:42.127Z,9.30
2023-01-09T10:49:15.203Z,9.40
2023-01-09T10:51:50.869Z,9.30
2023-01-09T10:54:21.469Z,9.40
2023-01-09T10:57:16.736Z,9.40
2023-01-09T10:59:43.537Z,9.40
2023-01-09T11:02:32.525Z,9.40
2023-01-09T11:04:59.324Z,9.50
2023-01-09T11:07:29.575Z,9.50
2023-01-09T11:10:12.234Z,9.50
2023-01-09T11:12:39.827Z,9.50
2023-01-09T11:15:15.741Z,9.60
2023-01-09T11:17:47.295Z,9.60
2023-01-09T11:20:21.828Z,9.60
2023-01-09T11:22:54.898Z,9.70
2023-01-09T11:25:23.788Z,9.70
2023-01-09T11:28:02.653Z,9.70
2023-01-09T11:31:01.855Z,9.70
2023-01-09T11:33:37.073Z,9.70
2023-01-09T11:36:08.370Z,9.80
2023-01-09T11:38:48.504Z,9.90
2023-01-09T11:41:22.365Z,9.90
2023-01-09T11:43:51.551Z,9.90
2023-01-09T11:46:32.443Z,9.90
2023-01-09T11:49:00.207Z,9.90
2023-01-09T11:51:31.062Z,10.00
2023-01-09T11:54:01.140Z,10.00
2023-01-09T11:56:27.975Z,10.00
2023-01-09T11:58:54.803Z,10.10
2023-01-09T12:01:36.074Z,10.10
2023-01-09T12:04:30.951Z,10.10
2023-01-09T12:07:06.936Z,10.10
2023-01-09T12:09:55.437Z,10.20
2023-01-09T12:12:35.926Z,10.20
2023-01-09T12:15:17.569Z,10.20
2023-01-09T12:18:12.650Z,10.30
2023-01-09T12:20:51.650Z,10.30
2023-01-09T12:23:42.206Z,10.40
2023-01-09T12:26:17.881Z,10.40
2023-01-09T12:29:17.878Z,10.40
2023-01-09T12:32:12.468Z,10.50
2023-01-09T12:35:17.390Z,10.50
2023-01-09T12:37:56.432Z,10.50
2023-01-09T12:40:35.662Z,10.50
2023-01-09T12:43:38.477Z,10.60
2023-01-09T12:46:22.117Z,10.60
2023-01-09T12:49:10.634Z,10.70
2023-01-09T12:52:04.149Z,10.70
2023-01-09T12:54:52.113Z,10.70
2023-01-09T12:57:28.604Z,10.70
2023-01-09T13:00:22.353Z,10.70
2023-01-09T13:03:13.243Z,10.70
2023-01-09T13:05:44.070Z,10.70
2023-01-09T13:08:30.304Z,10.70
2023-01-09T13:11:19.429Z,10.80
2023-01-09T13:13:57.356Z,10.80
2023-01-09T13:16:28.878Z,10.80
2023-01-09T13:19:00.582Z,10.90
2023-01-09T13:21:27.831Z,10.90
2023-01-09T13:24:04.312Z,10.80
2023-01-09T13:26:44.320Z,10.90
2023-01-09T13:29:28.815Z,10.80
2023-01-09T13:32:32.100Z,10.90
2023-01-09T13:34:59.088Z,10.90
2023-01-09T13:37:27.219Z,10.90
2023-01-09T13:40:02.634Z,10.90
2023-01-09T13:42:36.149Z,10.90
2023-01-09T13:45:23.914Z,10.90
2023-01-09T13:48:14.593Z,10.90
2023-01-09T13:50:42.347Z,10.90
2023-01-09T13:53:18.343Z,10.90
2023-01-09T13:55:57.804Z,10.90
2023-01-09T13:58:28.179Z,10.90
2023-01-09T14:01:00.666Z,10.90
2023-01-09T14:03:33.969Z,10.80
2023-01-09T14:06:00.682Z,10.80
2023-01-09T14:08:29.447Z,10.80
2023-01-09T14:11:06.568Z,10.80
2023-01-09T14:13:37.342Z,10.80
2023-01-09T14:16:09.264Z,10.80
2023-01-09T14:18:38.667Z,10.70
2023-01-09T14:21:11.318Z,10.70
2023-01-09T14:23:52.841Z,10.80
2023-01-09T14:26:25.204Z,10.80
2023-01-09T14:28:52.041Z,10.70
2023-01-09T14:31:32.555Z,10.80
2023-01-09T14:34:30.931Z,10.70
2023-01-09T14:36:59.869Z,10.70
2023-01-09T14:39:27.382Z,10.80
2023-01-09T14:42:07.791Z,10.80
2023-01-09T14:44:45.666Z,10.70
2023-01-09T14:47:23.358Z,10.70
2023-01-09T14:49:59.392Z,10.70
2023-01-09T14:52:31.977Z,10.70
2023-01-09T14:55:01.777Z,10.70
2023-01-09T14:57:36.251Z,10.70
2023-01-09T15:00:18.427Z,10.60
2023-01-09T15:02:46.698Z,10.70
2023-01-09T15:05:19.583Z,10.60
2023-01-09T15:08:01.458Z,10.60
2023-01-09T15:10:33.330Z,10.50
2023-01-09T15:13:02.093Z,10.50
2023-01-09T15:15:29.284Z,10.60
2023-01-09T15:18:05.900Z,10.50
2023-01-09T15:20:34.286Z,10.50
2023-01-09T15:23:04.136Z,10.40
2023-01-09T15:25:38.921Z,10.40
2023-01-09T15:28:27.031Z,10.40
2023-01-09T15:31:26.617Z,10.30
2023-01-09T15:33:54.180Z,10.30
2023-01-09T15:36:24.900Z,10.30
2023-01-09T15:38:52.848Z,10.30
2023-01-09T15:41:43.786Z,10.30
2023-01-09T15:44:26.595Z,10.20
2023-01-09T15:46:57.427Z,10.20
2023-01-09T15:49:24.566Z,10.10
2023-01-09T15:51:51.697Z,10.20
2023-01-09T15:54:25.377Z,10.50
2023-01-09T15:56:52.229Z,10.10
2023-01-09T15:59:27.405Z,10.10
2023-01-09T16:02:19.922Z,10.10
2023-01-09T16:04:47.396Z,10.00
2023-01-09T16:07:16.137Z,10.10
2023-01-09T16:09:47.971Z,10.00
2023-01-09T16:12:22.255Z,10.00
2023-01-09T16:14:55.273Z,10.00
2023-01-09T16:17:26.708Z,10.00
2023-01-09T16:19:58.227Z,10.00
2023-01-09T16:22:29.078Z,10.00
2023-01-09T16:25:01.018Z,9.80
2023-01-09T16:27:30.820Z,9.90
2023-01-09T16:30:19.559Z,9.90
2023-01-09T16:32:48.032Z,9.90
2023-01-09T16:35:20.309Z,9.90
2023-01-09T16:37:47.488Z,9.90
2023-01-09T16:40:14.497Z,9.90
2023-01-09T16:43:00.104Z,9.90
2023-01-09T16:45:34.293Z,9.80
2023-01-09T16:48:10.140Z,9.80
2023-01-09T16:50:36.845Z,9.80
2023-01-09T16:53:22.105Z,9.80
2023-01-09T16:55:49.020Z,9.70
2023-01-09T16:58:22.150Z,9.70
2023-01-09T17:00:48.994Z,9.70
2023-01-09T17:03:16.686Z,9.70
2023-01-09T17:05:43.912Z,9.60
2023-01-09T17:08:31.484Z,9.60
2023-01-09T17:10:58.537Z,9.60
2023-01-09T17:13:25.646Z,9.50
2023-01-09T17:15:53.261Z,9.60
2023-01-09T17:18:22.479Z,9.60
2023-01-09T17:20:51.763Z,9.60
2023-01-09T17:23:20.966Z,9.60
2023-01-09T17:26:07.203Z,9.50
2023-01-09T17:28:34.583Z,9.50
2023-01-09T17:31:06.746Z,9.50
2023-01-09T17:33:33.726Z,9.50
2023-01-09T17:36:02.707Z,9.50
2023-01-09T17:38:29.776Z,9.50
2023-01-09T17:40:56.595Z,9.40
2023-01-09T17:43:23.468Z,9.40
2023-01-09T17:45:50.349Z,9.40
2023-01-09T17:48:19.636Z,9.40
2023-01-09T17:50:47.052Z,9.40
2023-01-09T17:53:14.469Z,9.40
2023-01-09T17:55:42.203Z,9.30
2023-01-09T17:58:23.621Z,9.30
2023-01-09T18:00:50.428Z,9.30
2023-01-09T18:03:17.148Z,9.30
2023-01-09T18:05:44.102Z,9.30
2023-01-09T18:08:13.378Z,9.30
2023-01-09T18:10:40.607Z,9.30
2023-01-09T18:13:08.823Z,9.30
2023-01-09T18:15:35.544Z,9.40
2023-01-09T18:18:02.213Z,9.20
2023-01-09T18:20:29.010Z,9.20
2023-01-09T18:22:55.728Z,9.20
2023-01-09T18:25:22.399Z,9.20
2023-01-09T18:27:49.544Z,9.20
2023-01-09T18:30:16.374Z,9.20
2023-01-09T18:32:43.789Z,9.20
2023-01-09T18:35:10.602Z,9.20
2023-01-09T18:37:37.384Z,9.20
2023-01-09T18:40:04.556Z,9.20
2023-01-09T18:42:31.319Z,9.20
2023-01-09T18:44:58.033Z,9.10
2023-01-09T18:47:24.755Z,9.10
2023-01-09T18:49:51.672Z,9.10
2023-01-09T18:52:18.540Z,9.10
2023-01-09T18:54:45.303Z,9.10
2023-01-09T18:57:12.418Z,9.10
2023-01-09T18:59:39.154Z,9.10
2023-01-09T19:02:06.900Z,9.10
2023-01-09T19:04:33.804Z,9.30
2023-01-09T19:07:00.674Z,9.10
2023-01-09T19:09:27.431Z,9.10
2023-01-09T19:11:54.306Z,9.10
2023-01-09T19:14:20.995Z,9.10
2023-01-09T19:16:47.815Z,9.00
2023-01-09T19:19:14.508Z,9.00
2023-01-09T19:21:41.266Z,9.00
2023-01-09T19:24:08.198Z,9.10
2023-01-09T19:26:35.075Z,9.00
2023-01-09T19:29:01.834Z,9.00
2023-01-09T19:31:29.232Z,9.00
2023-01-09T19:33:56.622Z,9.00
2023-01-09T19:36:23.707Z,9.00
2023-01-09T19:38:56.901Z,9.00
2023-01-09T19:41:23.581Z,9.00
2023-01-09T19:43:51.022Z,8.90
2023-01-09T19:46:20.604Z,9.00
2023-01-09T19:48:47.909Z,11.50
2023-01-09T19:51:16.129Z,11.10
2023-01-09T19:53:42.917Z,10.80
2023-01-09T19:56:29.272Z,10.20
2023-01-09T19:59:01.016Z,8.90
2023-01-09T20:01:30.300Z,8.90
2023-01-09T20:03:58.668Z,8.90
2023-01-09T20:06:26.396Z,8.90
2023-01-09T20:08:58.126Z,8.50
2023-01-09T20:11:26.873Z,8.90
2023-01-09T20:13:55.379Z,8.90
2023-01-09T20:16:28.155Z,8.90
2023-01-09T20:18:58.542Z,8.90
2023-01-09T20:21:26.836Z,8.90
2023-01-09T20:23:55.560Z,8.90
2023-01-09T20:26:22.884Z,8.80
2023-01-09T20:28:49.692Z,8.80
2023-01-09T20:31:18.494Z,10.80
2023-01-09T20:33:46.781Z,8.80
2023-01-09T20:36:13.719Z,8.80
2023-01-09T20:38:41.321Z,8.80
2023-01-09T20:41:09.874Z,8.80
2023-01-09T20:43:37.610Z,8.80
2023-01-09T20:46:05.093Z,8.80
2023-01-09T20:48:31.904Z,8.80
2023-01-09T20:51:06.778Z,8.80
2023-01-09T20:53:34.086Z,8.80
2023-01-09T20:56:05.155Z,8.70
2023-01-09T20:58:31.939Z,8.70
2023-01-09T21:01:08.954Z,8.70
2023-01-09T21:03:35.725Z,8.70
2023-01-09T21:06:07.296Z,8.80
2023-01-09T21:08:34.272Z,8.80
2023-01-09T21:11:01.505Z,8.80
2023-01-09T21:13:28.420Z,8.70
2023-01-09T21:15:59.760Z,8.70
2023-01-09T21:18:26.437Z,8.70
2023-01-09T21:20:53.223Z,8.70
2023-01-09T21:23:21.269Z,8.70
2023-01-09T21:25:48.899Z,8.70
2023-01-09T21:28:19.608Z,8.70
2023-01-09T21:30:49.654Z,8.70
2023-01-09T21:33:23.178Z,8.70
2023-01-09T21:35:57.823Z,8.60
2023-01-09T21:38:26.221Z,8.60
2023-01-09T21:40:53.955Z,8.60
2023-01-09T21:43:49.369Z,8.60
2023-01-09T21:46:36.281Z,8.60
2023-01-09T21:49:06.468Z,8.60
2023-01-09T21:51:38.849Z,8.60
2023-01-09T21:54:05.612Z,8.60
2023-01-09T21:56:32.304Z,8.60
2023-01-09T21:58:58.951Z,8.60
2023-01-09T22:01:25.638Z,8.60
2023-01-09T22:03:56.329Z,8.60
2023-01-09T22:06:23.434Z,8.60
2023-01-09T22:08:50.085Z,8.60
2023-01-09T22:11:16.789Z,8.60
2023-01-09T22:13:47.944Z,8.60
2023-01-09T22:16:14.718Z,8.60
2023-01-09T22:18:41.415Z,8.60
2023-01-09T22:21:08.231Z,8.50
2023-01-09T22:23:34.971Z,8.50
2023-01-09T22:26:08.851Z,8.60
2023-01-09T22:28:35.710Z,8.50
2023-01-09T22:31:02.514Z,8.50
2023-01-09T22:33:29.197Z,8.50
2023-01-09T22:35:55.961Z,8.50
2023-01-09T22:38:22.632Z,8.50
2023-01-09T22:40:49.964Z,8.50
2023-01-09T22:43:17.279Z,8.50
2023-01-09T22:45:44.392Z,8.50
2023-01-09T22:48:11.117Z,8.50
2023-01-09T22:50:37.827Z,8.50
2023-01-09T22:53:04.495Z,8.60
2023-01-09T22:55:31.180Z,8.50
2023-01-09T22:57:57.932Z,8.50
2023-01-09T23:00:24.632Z,8.50
2023-01-09T23:02:51.344Z,8.40
2023-01-09T23:05:19.665Z,8.50
2023-01-09T23:07:46.510Z,8.50
2023-01-09T23:10:13.145Z,8.50
2023-01-09T23:12:39.808Z,8.40
2023-01-09T23:15:08.922Z,8.40
2023-01-09T23:17:35.596Z,8.40
2023-01-09T23:20:02.243Z,8.40
2023-01-09T23:22:28.885Z,8.50
2023-01-09T23:24:55.512Z,8.40
2023-01-09T23:27:22.318Z,8.40
2023-01-09T23:29:49.055Z,8.40
2023-01-09T23:32:15.835Z,8.40
2023-01-09T23:34:42.939Z,8.50
2023-01-09T23:37:09.738Z,8.40
2023-01-09T23:39:36.561Z,8.40
2023-01-09T23:42:22.138Z,8.40
2023-01-09T23:44:48.905Z,8.40
2023-01-09T23:47:15.533Z,8.40
2023-01-09T23:49:42.156Z,8.40
2023-01-09T23:52:08.901Z,8.40
2023-01-09T23:54:36.513Z,8.40
2023-01-09T23:57:03.214Z,8.40
2023-01-09T23:59:29.922Z,8.40
